createdAt,value
2023-04-15T00:01:37.321Z,75.30
2023-04-15T00:04:40.146Z,75.47
2023-04-15T00:07:42.790Z,75.52
2023-04-15T00:10:46.734Z,74.98
2023-04-15T00:13:49.540Z,74.73
2023-04-15T00:16:56.300Z,75.51
2023-04-15T00:20:00.049Z,75.23
2023-04-15T00:23:04.207Z,75.48
2023-04-15T00:26:07.570Z,75.99
2023-04-15T00:29:10.520Z,75.02
2023-04-15T00:32:13.486Z,74.78
2023-04-15T00:35:16.820Z,74.40
2023-04-15T00:38:20.699Z,74.93
2023-04-15T00:41:23.681Z,75.42
2023-04-15T00:44:26.328Z,75.01
2023-04-15T00:47:31.383Z,74.64
2023-04-15T00:50:34.023Z,74.86
2023-04-15T00:53:36.688Z,75.21
2023-04-15T00:56:39.970Z,74.80
2023-04-15T00:59:43.013Z,74.78
2023-04-15T01:02:45.927Z,74.97
2023-04-15T01:05:50.110Z,74.56
2023-04-15T01:08:54.284Z,74.90
2023-04-15T01:11:57.208Z,74.60
2023-04-15T01:15:00.879Z,74.32
2023-04-15T01:18:03.615Z,73.81
2023-04-15T01:21:08.174Z,73.82
2023-04-15T01:24:11.823Z,74.08
2023-04-15T01:27:14.961Z,74.29
2023-04-15T01:30:17.795Z,74.28
2023-04-15T01:33:20.684Z,73.58
2023-04-15T01:36:23.359Z,73.48
2023-04-15T01:39:29.549Z,73.29
2023-04-15T01:42:33.796Z,73.90
2023-04-15T01:45:36.438Z,73.84
2023-04-15T01:48:40.037Z,74.03
2023-04-15T01:51:42.639Z,73.29
2023-04-15T01:54:46.707Z,74.14
2023-04-15T01:57:49.385Z,73.84
2023-04-15T02:00:52.853Z,74.05
2023-04-15T02:03:55.518Z,73.86
2023-04-15T02:06:58.233Z,74.60
2023-04-15T02:10:00.774Z,74.20
2023-04-15T02:13:03.534Z,74.46
2023-04-15T02:16:16.774Z,73.78
2023-04-15T02:19:20.194Z,73.80
2023-04-15T02:22:23.190Z,74.12
2023-04-15T02:25:25.869Z,74.20
2023-04-15T02:28:28.587Z,73.54
2023-04-15T02:31:34.170Z,73.83
2023-04-15T02:34:38.507Z,73.16
2023-04-15T02:37:43.828Z,73.66
2023-04-15T02:40:49.695Z,73.31
2023-04-15T02:43:57.311Z,73.82
2023-04-15T02:46:59.925Z,72.92
2023-04-15T02:50:04.065Z,73.49
2023-04-15T02:53:07.556Z,73.13
2023-04-15T02:56:10.358Z,73.01
2023-04-15T02:59:13.481Z,73.17
2023-04-15T03:02:17.454Z,73.27
2023-04-15T03:05:20.550Z,73.53
2023-04-15T03:08:26.623Z,73.53
2023-04-15T03:11:29.759Z,73.20
2023-04-15T03:14:32.629Z,73.03
2023-04-15T03:17:35.826Z,73.59
2023-04-15T03:20:39.053Z,73.50
2023-04-15T03:23:42.117Z,74.24
2023-04-15T03:26:44.989Z,73.86
2023-04-15T03:29:51.743Z,73.34
2023-04-15T03:32:56.003Z,73.48
2023-04-15T03:35:58.781Z,73.28
2023-04-15T03:39:02.605Z,73.39
2023-04-15T03:42:05.649Z,72.90
2023-04-15T03:45:08.560Z,73.27
2023-04-15T03:48:17.597Z,73.54
2023-04-15T03:51:20.750Z,74.02
2023-04-15T03:54:23.263Z,74.02
2023-04-15T03:57:25.810Z,75.44
2023-04-15T04:00:28.731Z,75.31
2023-04-15T04:03:32.051Z,75.12
2023-04-15T04:06:34.735Z,75.09
2023-04-15T04:09:39.275Z,75.68
2023-04-15T04:12:41.847Z,74.38
2023-04-15T04:15:44.665Z,74.68
2023-04-15T04:18:47.195Z,74.08
2023-04-15T04:21:50.174Z,73.07
2023-04-15T04:24:52.866Z,72.92
2023-04-15T04:27:56.486Z,72.96
2023-04-15T04:31:00.629Z,72.49
2023-04-15T04:34:03.216Z,72.99
2023-04-15T04:37:05.970Z,72.73
2023-04-15T04:40:10.754Z,72.70
2023-04-15T04:43:14.736Z,71.92
2023-04-15T04:46:17.495Z,72.14
2023-04-15T04:49:20.117Z,72.19
2023-04-15T04:52:23.194Z,71.61
2023-04-15T04:55:25.830Z,71.08
2023-04-15T04:58:28.274Z,70.98
2023-04-15T05:01:31.058Z,70.73
2023-04-15T05:04:34.562Z,71.46
2023-04-15T05:07:37.306Z,70.83
2023-04-15T05:10:40.004Z,70.35
2023-04-15T05:13:42.798Z,70.70
2023-04-15T05:16:45.256Z,71.06
2023-04-15T05:19:48.268Z,70.03
2023-04-15T05:22:50.895Z,69.34
2023-04-15T05:25:53.635Z,69.79
2023-04-15T05:28:56.219Z,69.07
2023-04-15T05:31:59.527Z,69.78
2023-04-15T05:35:02.174Z,70.08
2023-04-15T05:38:04.787Z,71.09
2023-04-15T05:41:07.586Z,71.50
2023-04-15T05:44:10.769Z,71.62
2023-04-15T05:47:13.315Z,72.14
2023-04-15T05:50:17.023Z,71.15
2023-04-15T05:53:19.782Z,70.59
2023-04-15T05:56:22.414Z,71.55
2023-04-15T05:59:25.525Z,71.31
2023-04-15T06:02:28.137Z,71.56
2023-04-15T06:05:30.723Z,71.74
2023-04-15T06:08:33.361Z,71.36
2023-04-15T06:11:36.388Z,71.55
2023-04-15T06:14:39.523Z,69.91
2023-04-15T06:17:42.060Z,69.63
2023-04-15T06:20:44.664Z,68.51
2023-04-15T06:23:47.530Z,67.49
2023-04-15T06:26:51.391Z,65.97
2023-04-15T06:29:54.827Z,64.46
2023-04-15T06:32:57.673Z,64.18
2023-04-15T06:36:00.247Z,64.10
2023-04-15T06:39:03.939Z,64.93
2023-04-15T06:42:06.899Z,65.56
2023-04-15T06:45:10.292Z,65.61
2023-04-15T06:48:13.199Z,64.78
2023-04-15T06:51:17.170Z,65.12
2023-04-15T06:54:23.871Z,65.40
2023-04-15T06:57:26.491Z,65.52
2023-04-15T07:00:29.292Z,65.88
2023-04-15T07:03:33.015Z,65.22
2023-04-15T07:06:35.806Z,64.87
2023-04-15T07:09:38.845Z,64.86
2023-04-15T07:12:41.655Z,64.19
2023-04-15T07:15:44.924Z,64.45
2023-04-15T07:18:47.557Z,64.68
2023-04-15T07:21:50.338Z,65.21
2023-04-15T07:24:52.781Z,64.39
2023-04-15T07:27:55.660Z,63.57
2023-04-15T07:30:58.307Z,61.54
2023-04-15T07:34:01.169Z,61.47
2023-04-15T07:37:04.064Z,60.41
2023-04-15T07:40:07.559Z,58.97
2023-04-15T07:43:10.161Z,56.61
2023-04-15T07:46:12.889Z,55.80
2023-04-15T07:49:15.822Z,55.36
2023-04-15T07:52:19.172Z,54.96
2023-04-15T07:55:23.482Z,54.26
2023-04-15T07:58:26.360Z,53.62
2023-04-15T08:01:28.848Z,53.30
2023-04-15T08:04:32.639Z,52.58
2023-04-15T08:07:37.863Z,51.40
2023-04-15T08:10:42.352Z,51.45
2023-04-15T08:13:44.861Z,51.37
2023-04-15T08:16:47.769Z,50.72
2023-04-15T08:19:50.413Z,50.96
2023-04-15T08:22:53.839Z,51.94
2023-04-15T08:25:56.396Z,50.71
2023-04-15T08:28:59.573Z,50.93
2023-04-15T08:32:02.805Z,49.25
2023-04-15T08:35:05.758Z,47.90
2023-04-15T08:38:09.356Z,49.32
2023-04-15T08:41:20.760Z,50.79
2023-04-15T08:44:25.662Z,50.99
2023-04-15T08:47:31.605Z,51.61
2023-04-15T08:50:34.969Z,50.50
2023-04-15T08:53:38.739Z,47.17
2023-04-15T08:56:42.718Z,45.26
2023-04-15T08:59:45.576Z,46.86
2023-04-15T09:02:48.794Z,46.44
2023-04-15T09:05:53.294Z,46.10
2023-04-15T09:08:56.588Z,45.09
2023-04-15T09:12:01.630Z,46.20
2023-04-15T09:15:04.320Z,47.19
2023-04-15T09:18:07.228Z,45.87
2023-04-15T09:21:15.018Z,44.02
2023-04-15T09:24:17.836Z,44.28
2023-04-15T09:27:21.057Z,45.85
2023-04-15T09:30:24.402Z,44.82
2023-04-15T09:33:29.364Z,42.98
2023-04-15T09:36:54.057Z,42.33
2023-04-15T09:39:57.443Z,40.05
2023-04-15T09:43:02.119Z,41.97
2023-04-15T09:46:04.867Z,38.50
2023-04-15T09:49:09.113Z,38.02
2023-04-15T09:52:14.119Z,38.53
2023-04-15T09:55:18.914Z,37.25
2023-04-15T09:58:23.675Z,40.21
2023-04-15T10:01:26.505Z,43.80
2023-04-15T10:04:30.513Z,44.06
2023-04-15T10:07:34.048Z,47.18
2023-04-15T10:10:37.208Z,49.36
2023-04-15T10:13:40.652Z,47.81
2023-04-15T10:16:49.199Z,49.04
2023-04-15T10:19:54.086Z,51.33
2023-04-15T10:22:58.155Z,52.79
2023-04-15T10:26:01.354Z,53.77
2023-04-15T10:29:05.015Z,52.47
2023-04-15T10:32:08.194Z,44.40
2023-04-15T10:35:12.054Z,45.04
2023-04-15T10:38:33.572Z,47.49
2023-04-15T10:41:37.944Z,47.37
2023-04-15T10:44:48.597Z,44.23
2023-04-15T10:47:59.061Z,47.10
2023-04-15T10:51:03.838Z,50.62
2023-04-15T10:54:13.546Z,52.97
2023-04-15T10:57:21.432Z,55.82
2023-04-15T11:00:30.135Z,57.90
2023-04-15T11:03:42.727Z,58.44
2023-04-15T11:06:46.017Z,59.42
2023-04-15T11:09:48.639Z,58.29
2023-04-15T11:12:53.751Z,57.00
2023-04-15T11:15:58.441Z,55.92
2023-04-15T11:19:01.821Z,54.89
2023-04-15T11:22:10.301Z,53.49
2023-04-15T11:25:26.131Z,50.51
2023-04-15T11:28:31.004Z,48.86
2023-04-15T11:31:36.358Z,48.32
2023-04-15T11:34:39.096Z,47.41
2023-04-15T11:37:41.975Z,46.48
2023-04-15T11:40:46.993Z,44.68
2023-04-15T11:43:51.274Z,45.18
2023-04-15T11:46:56.450Z,45.94
2023-04-15T11:50:23.417Z,43.99
2023-04-15T11:53:41.026Z,46.89
2023-04-15T11:56:50.910Z,47.51
2023-04-15T11:59:55.433Z,46.41
2023-04-15T12:03:30.626Z,48.57
2023-04-15T12:06:37.413Z,50.06
2023-04-15T12:09:40.220Z,48.40
2023-04-15T12:12:42.864Z,44.71
2023-04-15T12:15:45.458Z,40.54
2023-04-15T12:18:53.514Z,39.12
2023-04-15T12:22:02.550Z,38.02
2023-04-15T12:25:05.591Z,41.67
2023-04-15T12:28:12.261Z,38.77
2023-04-15T12:31:15.161Z,38.03
2023-04-15T12:34:18.825Z,44.83
2023-04-15T12:37:22.073Z,48.16
2023-04-15T12:40:24.791Z,49.99
2023-04-15T12:43:27.836Z,48.69
2023-04-15T12:46:30.686Z,49.70
2023-04-15T12:49:33.790Z,49.44
2023-04-15T12:52:36.440Z,51.03
2023-04-15T12:55:39.041Z,50.65
2023-04-15T12:58:43.205Z,50.60
2023-04-15T13:01:47.880Z,51.31
2023-04-15T13:04:50.956Z,50.93
2023-04-15T13:07:53.720Z,51.07
2023-04-15T13:10:56.854Z,51.71
2023-04-15T13:14:07.842Z,52.27
2023-04-15T13:17:11.633Z,52.85
2023-04-15T13:20:14.345Z,53.10
2023-04-15T13:23:17.777Z,51.71
2023-04-15T13:26:20.652Z,50.54
2023-04-15T13:29:23.406Z,50.10
2023-04-15T13:32:26.425Z,49.75
2023-04-15T13:35:29.251Z,50.98
2023-04-15T13:38:31.820Z,51.93
2023-04-15T13:41:34.440Z,53.35
2023-04-15T13:44:37.454Z,53.55
2023-04-15T13:47:41.373Z,53.72
2023-04-15T13:50:45.557Z,53.59
2023-04-15T13:53:48.338Z,52.32
2023-04-15T13:56:51.613Z,51.59
2023-04-15T13:59:54.364Z,52.38
2023-04-15T14:02:58.831Z,52.45
2023-04-15T14:06:02.310Z,50.31
2023-04-15T14:09:05.644Z,45.98
2023-04-15T14:12:08.540Z,41.56
2023-04-15T14:15:13.027Z,45.94
2023-04-15T14:18:15.722Z,48.96
2023-04-15T14:21:18.486Z,52.46
2023-04-15T14:24:21.347Z,54.27
2023-04-15T14:27:23.903Z,55.48
2023-04-15T14:30:27.304Z,56.21
2023-04-15T14:33:32.862Z,56.79
2023-04-15T14:36:36.177Z,56.65
2023-04-15T14:39:40.140Z,55.77
2023-04-15T14:42:43.245Z,55.31
2023-04-15T14:45:46.851Z,55.76
2023-04-15T14:48:50.965Z,56.69
2023-04-15T14:51:55.072Z,56.23
2023-04-15T14:54:58.067Z,56.21
2023-04-15T14:58:02.504Z,56.35
2023-04-15T15:01:05.807Z,55.40
2023-04-15T15:04:11.303Z,54.26
2023-04-15T15:07:13.937Z,53.54
2023-04-15T15:10:16.633Z,53.51
2023-04-15T15:13:39.517Z,52.88
2023-04-15T15:16:42.930Z,52.56
2023-04-15T15:19:45.963Z,52.95
2023-04-15T15:22:49.020Z,53.36
2023-04-15T15:25:51.799Z,54.54
2023-04-15T15:28:54.954Z,55.67
2023-04-15T15:31:58.070Z,56.70
2023-04-15T15:35:00.844Z,56.72
2023-04-15T15:38:03.667Z,57.17
2023-04-15T15:41:06.776Z,57.50
2023-04-15T15:44:09.317Z,58.06
2023-04-15T15:47:12.339Z,58.15
2023-04-15T15:50:15.828Z,58.61
2023-04-15T15:53:21.185Z,59.68
2023-04-15T15:56:23.890Z,59.26
2023-04-15T15:59:26.532Z,60.27
2023-04-15T16:02:52.245Z,60.80
2023-04-15T16:05:53.750Z,61.24
2023-04-15T16:08:58.094Z,61.39
2023-04-15T16:12:02.299Z,62.05
2023-04-15T16:15:06.229Z,63.19
2023-04-15T16:18:08.995Z,64.23
2023-04-15T16:21:11.715Z,64.28
2023-04-15T16:24:15.348Z,64.71
2023-04-15T16:27:18.146Z,64.50
2023-04-15T16:30:22.182Z,64.72
2023-04-15T16:33:24.909Z,64.97
2023-04-15T16:36:27.703Z,64.69
2023-04-15T16:39:30.885Z,64.51
2023-04-15T16:42:34.451Z,65.44
2023-04-15T16:45:37.614Z,65.40
2023-04-15T16:48:40.233Z,65.65
2023-04-15T16:51:43.475Z,65.94
2023-04-15T16:54:46.874Z,66.85
2023-04-15T16:58:02.401Z,66.48
2023-04-15T17:01:06.695Z,67.09
2023-04-15T17:04:10.021Z,67.96
2023-04-15T17:07:12.746Z,68.37
2023-04-15T17:10:16.333Z,68.82
2023-04-15T17:13:19.102Z,69.52
2023-04-15T17:16:22.162Z,69.93
2023-04-15T17:19:26.900Z,70.87
2023-04-15T17:22:30.031Z,71.32
2023-04-15T17:25:32.536Z,72.39
2023-04-15T17:28:35.454Z,72.36
2023-04-15T17:31:38.307Z,72.98
2023-04-15T17:34:49.937Z,73.41
2023-04-15T17:37:54.121Z,73.28
2023-04-15T17:40:57.080Z,72.75
2023-04-15T17:44:00.650Z,73.06
2023-04-15T17:47:03.761Z,73.13
2023-04-15T17:50:08.565Z,73.53
2023-04-15T17:53:11.611Z,73.65
2023-04-15T17:56:15.068Z,73.81
2023-04-15T17:59:18.972Z,73.61
2023-04-15T18:02:22.913Z,73.57
2023-04-15T18:05:26.154Z,73.58
2023-04-15T18:08:29.756Z,73.64
2023-04-15T18:11:33.726Z,74.12
2023-04-15T18:14:36.740Z,74.36
2023-04-15T18:17:39.852Z,74.26
2023-04-15T18:20:43.527Z,73.81
2023-04-15T18:23:46.859Z,74.24
2023-04-15T18:26:50.057Z,74.42
2023-04-15T18:29:53.548Z,75.41
2023-04-15T18:32:56.831Z,74.94
2023-04-15T18:36:00.225Z,74.39
2023-04-15T18:39:04.897Z,75.08
2023-04-15T18:42:08.726Z,74.68
2023-04-15T18:45:32.895Z,74.69
2023-04-15T18:48:36.393Z,75.28
2023-04-15T18:51:40.035Z,74.57
2023-04-15T18:54:44.505Z,75.48
2023-04-15T18:57:48.394Z,75.12
2023-04-15T19:00:52.421Z,75.56
2023-04-15T19:03:57.917Z,75.65
2023-04-15T19:07:02.897Z,75.98
2023-04-15T19:10:06.272Z,76.17
2023-04-15T19:13:09.341Z,76.13
2023-04-15T19:16:13.921Z,76.57
2023-04-15T19:19:17.460Z,76.21
2023-04-15T19:22:21.253Z,75.54
2023-04-15T19:25:24.568Z,75.49
2023-04-15T19:28:28.832Z,75.54
2023-04-15T19:31:32.533Z,75.19
2023-04-15T19:34:37.667Z,74.84
2023-04-15T19:37:42.142Z,74.15
2023-04-15T19:40:45.394Z,73.85
2023-04-15T19:43:50.377Z,73.39
2023-04-15T19:46:56.736Z,73.29
2023-04-15T19:50:01.621Z,72.96
2023-04-15T19:53:05.437Z,72.46
2023-04-15T19:56:12.566Z,72.19
2023-04-15T19:59:15.684Z,72.26
2023-04-15T20:02:19.614Z,72.17
2023-04-15T20:05:23.779Z,72.48
2023-04-15T20:08:27.367Z,72.25
2023-04-15T20:12:47.931Z,72.12
2023-04-15T20:14:54.457Z,71.23
2023-04-15T20:17:57.682Z,71.09
2023-04-15T20:21:01.177Z,71.82
2023-04-15T20:24:08.147Z,71.70
2023-04-15T20:27:13.432Z,71.69
2023-04-15T20:30:17.067Z,71.22
2023-04-15T20:33:20.493Z,71.65
2023-04-15T20:36:24.232Z,72.40
2023-04-15T20:39:27.788Z,71.68
2023-04-15T20:42:37.408Z,72.52
2023-04-15T20:45:40.640Z,72.78
2023-04-15T20:48:43.663Z,72.98
2023-04-15T20:51:46.735Z,72.16
2023-04-15T20:54:49.835Z,72.55
2023-04-15T20:57:52.503Z,72.69
2023-04-15T21:00:56.232Z,72.93
2023-04-15T21:03:59.318Z,72.54
2023-04-15T21:07:01.989Z,73.61
2023-04-15T21:10:05.022Z,74.85
2023-04-15T21:13:08.048Z,75.42
2023-04-15T21:16:11.110Z,75.06
2023-04-15T21:19:14.113Z,75.27
2023-04-15T21:22:16.763Z,74.24
2023-04-15T21:25:19.397Z,73.98
2023-04-15T21:28:22.670Z,74.15
2023-04-15T21:31:25.387Z,74.45
2023-04-15T21:34:28.072Z,74.94
2023-04-15T21:37:30.857Z,74.98
2023-04-15T21:40:33.558Z,74.86
2023-04-15T21:43:37.246Z,75.22
2023-04-15T21:46:39.847Z,75.67
2023-04-15T21:49:42.424Z,75.62
2023-04-15T21:52:45.318Z,75.74
2023-04-15T21:55:48.131Z,75.71
2023-04-15T21:58:51.382Z,75.09
2023-04-15T22:01:54.115Z,74.86
2023-04-15T22:04:56.926Z,75.38
2023-04-15T22:08:05.868Z,75.49
2023-04-15T22:11:09.406Z,75.30
2023-04-15T22:14:12.295Z,76.07
2023-04-15T22:17:15.234Z,76.72
2023-04-15T22:20:19.247Z,76.64
2023-04-15T22:23:22.016Z,77.01
2023-04-15T22:26:24.602Z,76.16
2023-04-15T22:29:27.453Z,77.01
2023-04-15T22:32:30.048Z,76.92
2023-04-15T22:35:32.790Z,76.67
2023-04-15T22:38:35.422Z,76.86
2023-04-15T22:41:38.037Z,76.38
2023-04-15T22:44:40.844Z,76.42
2023-04-15T22:47:46.390Z,76.66
2023-04-15T22:50:50.781Z,77.02
2023-04-15T22:53:53.662Z,76.33
2023-04-15T22:56:57.529Z,76.54
2023-04-15T23:00:00.662Z,77.34
2023-04-15T23:03:03.494Z,77.78
2023-04-15T23:06:06.613Z,77.55
2023-04-15T23:09:09.457Z,78.27
2023-04-15T23:12:13.793Z,77.96
2023-04-15T23:15:16.673Z,78.37
2023-04-15T23:18:19.307Z,78.40
2023-04-15T23:21:23.200Z,78.46
2023-04-15T23:24:26.935Z,77.80
2023-04-15T23:27:29.704Z,77.84
2023-04-15T23:30:32.260Z,77.63
2023-04-15T23:33:35.231Z,77.96
2023-04-15T23:36:38.274Z,78.19
2023-04-15T23:39:40.772Z,78.09
2023-04-15T23:42:43.625Z,78.14
2023-04-15T23:45:46.480Z,78.77
2023-04-15T23:48:49.785Z,79.32
2023-04-15T23:51:52.675Z,79.59
2023-04-15T23:54:56.490Z,79.38
2023-04-15T23:57:59.770Z,79.26
